sensor_id;sensor_type;location;lat;lon;timestamp;temperature;humidity
56512;DHT22;42408;53.238;5.686;2022-12-08T00:01:29;4.00;99.90
56512;DHT22;42408;53.238;5.686;2022-12-08T00:03:56;4.00;99.90
56512;DHT22;42408;53.238;5.686;2022-12-08T00:09:16;4.00;99.90
56512;DHT22;42408;53.238;5.686;2022-12-08T00:11:49;4.00;99.90
56512;DHT22;42408;53.238;5.686;2022-12-08T00:14:15;4.00;99.90
56512;DHT22;42408;53.238;5.686;2022-12-08T00:16:40;4.80;99.90
56512;DHT22;42408;53.238;5.686;2022-12-08T00:19:06;3.90;99.90
56512;DHT22;42408;53.238;5.686;2022-12-08T00:21:31;4.40;99.90
56512;DHT22;42408;53.238;5.686;2022-12-08T00:23:57;5.00;99.90
56512;DHT22;42408;53.238;5.686;2022-12-08T00:26:22;4.80;99.90
56512;DHT22;42408;53.238;5.686;2022-12-08T00:28:48;3.90;99.90
56512;DHT22;42408;53.238;5.686;2022-12-08T00:31:14;3.80;99.90
56512;DHT22;42408;53.238;5.686;2022-12-08T00:33:39;3.80;99.90
56512;DHT22;42408;53.238;5.686;2022-12-08T00:36:09;3.80;99.90
56512;DHT22;42408;53.238;5.686;2022-12-08T00:38:35;3.90;99.90
56512;DHT22;42408;53.238;5.686;2022-12-08T00:41:01;3.80;99.90
56512;DHT22;42408;53.238;5.686;2022-12-08T00:43:27;3.80;99.90
56512;DHT22;42408;53.238;5.686;2022-12-08T00:45:52;3.80;99.90
56512;DHT22;42408;53.238;5.686;2022-12-08T00:48:18;3.80;99.90
56512;DHT22;42408;53.238;5.686;2022-12-08T00:50:43;4.60;99.90
56512;DHT22;42408;53.238;5.686;2022-12-08T00:53:09;3.90;99.90
56512;DHT22;42408;53.238;5.686;2022-12-08T00:55:34;3.90;99.90
56512;DHT22;42408;53.238;5.686;2022-12-08T00:58:00;3.90;99.90
56512;DHT22;42408;53.238;5.686;2022-12-08T01:00:25;3.90;99.90
56512;DHT22;42408;53.238;5.686;2022-12-08T01:02:51;3.80;99.90
56512;DHT22;42408;53.238;5.686;2022-12-08T01:05:16;4.60;99.90
56512;DHT22;42408;53.238;5.686;2022-12-08T01:07:42;3.80;99.90
56512;DHT22;42408;53.238;5.686;2022-12-08T01:10:08;4.80;99.90
56512;DHT22;42408;53.238;5.686;2022-12-08T01:12:33;3.80;99.90
56512;DHT22;42408;53.238;5.686;2022-12-08T01:14:59;3.80;99.90
56512;DHT22;42408;53.238;5.686;2022-12-08T01:17:24;3.70;99.90
56512;DHT22;42408;53.238;5.686;2022-12-08T01:19:50;3.70;99.90
56512;DHT22;42408;53.238;5.686;2022-12-08T01:22:15;3.70;99.90
56512;DHT22;42408;53.238;5.686;2022-12-08T01:24:41;4.40;99.90
56512;DHT22;42408;53.238;5.686;2022-12-08T01:27:06;3.70;99.90
56512;DHT22;42408;53.238;5.686;2022-12-08T01:29:32;3.60;99.90
56512;DHT22;42408;53.238;5.686;2022-12-08T01:31:58;3.70;99.90
56512;DHT22;42408;53.238;5.686;2022-12-08T01:34:24;3.60;99.90
56512;DHT22;42408;53.238;5.686;2022-12-08T01:36:49;3.60;99.90
56512;DHT22;42408;53.238;5.686;2022-12-08T01:39:16;4.60;99.90
56512;DHT22;42408;53.238;5.686;2022-12-08T01:41:42;3.70;99.90
56512;DHT22;42408;53.238;5.686;2022-12-08T01:46:39;3.80;99.90
56512;DHT22;42408;53.238;5.686;2022-12-08T01:49:09;3.80;99.90
56512;DHT22;42408;53.238;5.686;2022-12-08T01:54:08;3.80;99.90
56512;DHT22;42408;53.238;5.686;2022-12-08T01:56:40;4.00;99.90
56512;DHT22;42408;53.238;5.686;2022-12-08T01:59:06;3.70;99.90
56512;DHT22;42408;53.238;5.686;2022-12-08T02:01:32;3.70;99.90
56512;DHT22;42408;53.238;5.686;2022-12-08T02:03:58;3.80;99.90
56512;DHT22;42408;53.238;5.686;2022-12-08T02:06:25;3.70;99.90
56512;DHT22;42408;53.238;5.686;2022-12-08T02:08:51;4.70;99.90
56512;DHT22;42408;53.238;5.686;2022-12-08T02:11:19;3.70;99.90
56512;DHT22;42408;53.238;5.686;2022-12-08T02:13:45;3.70;99.90
56512;DHT22;42408;53.238;5.686;2022-12-08T02:34:43;3.40;99.90
56512;DHT22;42408;53.238;5.686;2022-12-08T02:37:17;3.40;99.90
56512;DHT22;42408;53.238;5.686;2022-12-08T02:39:49;3.40;99.90
56512;DHT22;42408;53.238;5.686;2022-12-08T02:47:33;3.30;99.90
56512;DHT22;42408;53.238;5.686;2022-12-08T02:49:59;3.60;99.90
56512;DHT22;42408;53.238;5.686;2022-12-08T02:54:51;3.30;99.90
56512;DHT22;42408;53.238;5.686;2022-12-08T02:57:23;4.00;99.90
56512;DHT22;42408;53.238;5.686;2022-12-08T03:05:03;3.20;99.90
56512;DHT22;42408;53.238;5.686;2022-12-08T03:07:32;3.10;99.90
56512;DHT22;42408;53.238;5.686;2022-12-08T03:10:02;3.10;99.90
56512;DHT22;42408;53.238;5.686;2022-12-08T03:14:55;3.70;99.90
56512;DHT22;42408;53.238;5.686;2022-12-08T03:17:24;3.10;99.90
56512;DHT22;42408;53.238;5.686;2022-12-08T03:19:50;3.10;99.90
56512;DHT22;42408;53.238;5.686;2022-12-08T03:22:18;3.10;99.90
56512;DHT22;42408;53.238;5.686;2022-12-08T03:24:45;3.10;99.90
56512;DHT22;42408;53.238;5.686;2022-12-08T03:27:15;3.10;99.90
56512;DHT22;42408;53.238;5.686;2022-12-08T03:29:44;4.40;99.90
56512;DHT22;42408;53.238;5.686;2022-12-08T03:34:35;3.20;99.90
56512;DHT22;42408;53.238;5.686;2022-12-08T03:37:04;3.20;99.90
56512;DHT22;42408;53.238;5.686;2022-12-08T03:39:29;3.20;99.90
56512;DHT22;42408;53.238;5.686;2022-12-08T03:41:55;3.40;99.90
56512;DHT22;42408;53.238;5.686;2022-12-08T03:44:20;4.30;99.90
56512;DHT22;42408;53.238;5.686;2022-12-08T03:46:46;3.20;99.90
56512;DHT22;42408;53.238;5.686;2022-12-08T03:49:11;3.20;99.90
56512;DHT22;42408;53.238;5.686;2022-12-08T03:51:37;3.20;99.90
56512;DHT22;42408;53.238;5.686;2022-12-08T03:54:02;3.20;99.90
56512;DHT22;42408;53.238;5.686;2022-12-08T03:56:32;3.20;99.90
56512;DHT22;42408;53.238;5.686;2022-12-08T03:58:58;3.20;99.90
56512;DHT22;42408;53.238;5.686;2022-12-08T04:01:24;3.20;99.90
56512;DHT22;42408;53.238;5.686;2022-12-08T04:03:49;4.00;99.90
56512;DHT22;42408;53.238;5.686;2022-12-08T04:06:15;3.10;99.90
56512;DHT22;42408;53.238;5.686;2022-12-08T04:08:41;3.10;99.90
56512;DHT22;42408;53.238;5.686;2022-12-08T04:11:06;3.10;99.90
56512;DHT22;42408;53.238;5.686;2022-12-08T04:13:33;3.10;99.90
56512;DHT22;42408;53.238;5.686;2022-12-08T04:15:58;4.20;99.90
56512;DHT22;42408;53.238;5.686;2022-12-08T04:18:24;3.10;99.90
56512;DHT22;42408;53.238;5.686;2022-12-08T04:20:49;3.10;99.90
56512;DHT22;42408;53.238;5.686;2022-12-08T04:23:15;3.10;99.90
56512;DHT22;42408;53.238;5.686;2022-12-08T04:25:41;3.10;99.90
56512;DHT22;42408;53.238;5.686;2022-12-08T04:28:06;3.10;99.90
56512;DHT22;42408;53.238;5.686;2022-12-08T04:30:32;3.10;99.90
56512;DHT22;42408;53.238;5.686;2022-12-08T04:32:57;3.10;99.90
56512;DHT22;42408;53.238;5.686;2022-12-08T04:35:23;3.40;99.90
56512;DHT22;42408;53.238;5.686;2022-12-08T04:37:48;3.50;99.90
56512;DHT22;42408;53.238;5.686;2022-12-08T04:40:14;3.90;99.90
56512;DHT22;42408;53.238;5.686;2022-12-08T04:42:40;3.10;99.90
56512;DHT22;42408;53.238;5.686;2022-12-08T04:45:05;3.60;99.90
56512;DHT22;42408;53.238;5.686;2022-12-08T04:47:31;3.10;99.90
56512;DHT22;42408;53.238;5.686;2022-12-08T04:49:56;3.20;99.90
56512;DHT22;42408;53.238;5.686;2022-12-08T04:52:22;3.10;99.90
56512;DHT22;42408;53.238;5.686;2022-12-08T04:54:47;3.20;99.90
56512;DHT22;42408;53.238;5.686;2022-12-08T04:57:13;3.10;99.90
56512;DHT22;42408;53.238;5.686;2022-12-08T04:59:39;3.10;99.90
56512;DHT22;42408;53.238;5.686;2022-12-08T05:02:04;3.10;99.90
56512;DHT22;42408;53.238;5.686;2022-12-08T05:04:30;3.10;99.90
56512;DHT22;42408;53.238;5.686;2022-12-08T05:06:55;4.20;99.90
56512;DHT22;42408;53.238;5.686;2022-12-08T05:09:21;3.90;99.90
56512;DHT22;42408;53.238;5.686;2022-12-08T05:11:47;3.10;99.90
56512;DHT22;42408;53.238;5.686;2022-12-08T05:14:13;4.40;99.90
56512;DHT22;42408;53.238;5.686;2022-12-08T05:16:39;4.00;99.90
56512;DHT22;42408;53.238;5.686;2022-12-08T05:19:05;3.10;99.90
56512;DHT22;42408;53.238;5.686;2022-12-08T05:21:31;3.10;99.90
56512;DHT22;42408;53.238;5.686;2022-12-08T05:23:56;3.10;99.90
56512;DHT22;42408;53.238;5.686;2022-12-08T05:26:22;3.50;99.90
56512;DHT22;42408;53.238;5.686;2022-12-08T05:28:48;3.30;99.90
56512;DHT22;42408;53.238;5.686;2022-12-08T05:31:14;3.20;99.90
56512;DHT22;42408;53.238;5.686;2022-12-08T05:33:40;3.20;99.90
56512;DHT22;42408;53.238;5.686;2022-12-08T05:36:06;3.20;99.90
56512;DHT22;42408;53.238;5.686;2022-12-08T05:38:31;3.20;99.90
56512;DHT22;42408;53.238;5.686;2022-12-08T05:40:57;3.30;99.90
56512;DHT22;42408;53.238;5.686;2022-12-08T05:43:23;3.30;99.90
56512;DHT22;42408;53.238;5.686;2022-12-08T05:45:48;3.30;99.90
56512;DHT22;42408;53.238;5.686;2022-12-08T05:48:14;3.30;99.90
56512;DHT22;42408;53.238;5.686;2022-12-08T05:50:44;3.20;99.90
56512;DHT22;42408;53.238;5.686;2022-12-08T05:53:09;3.20;99.90
56512;DHT22;42408;53.238;5.686;2022-12-08T05:55:35;3.20;99.90
56512;DHT22;42408;53.238;5.686;2022-12-08T05:58:00;4.60;99.90
56512;DHT22;42408;53.238;5.686;2022-12-08T06:00:26;3.60;99.90
56512;DHT22;42408;53.238;5.686;2022-12-08T06:02:51;3.10;99.90
56512;DHT22;42408;53.238;5.686;2022-12-08T06:05:17;4.20;99.90
56512;DHT22;42408;53.238;5.686;2022-12-08T06:07:43;3.00;99.90
56512;DHT22;42408;53.238;5.686;2022-12-08T06:10:08;3.90;99.90
56512;DHT22;42408;53.238;5.686;2022-12-08T06:12:34;2.90;99.90
56512;DHT22;42408;53.238;5.686;2022-12-08T06:14:59;2.90;99.90
56512;DHT22;42408;53.238;5.686;2022-12-08T06:17:25;2.80;99.90
56512;DHT22;42408;53.238;5.686;2022-12-08T06:19:50;2.80;99.90
56512;DHT22;42408;53.238;5.686;2022-12-08T06:22:16;2.80;99.90
56512;DHT22;42408;53.238;5.686;2022-12-08T06:24:41;2.70;99.90
56512;DHT22;42408;53.238;5.686;2022-12-08T06:27:07;2.70;99.90
56512;DHT22;42408;53.238;5.686;2022-12-08T06:29:32;2.70;99.90
56512;DHT22;42408;53.238;5.686;2022-12-08T06:31:58;3.80;99.90
56512;DHT22;42408;53.238;5.686;2022-12-08T06:34:23;2.60;99.90
56512;DHT22;42408;53.238;5.686;2022-12-08T06:36:49;2.50;99.90
56512;DHT22;42408;53.238;5.686;2022-12-08T06:39:14;2.50;99.90
56512;DHT22;42408;53.238;5.686;2022-12-08T06:41:40;2.50;99.90
56512;DHT22;42408;53.238;5.686;2022-12-08T06:44:24;2.50;99.90
56512;DHT22;42408;53.238;5.686;2022-12-08T06:46:49;2.40;99.90
56512;DHT22;42408;53.238;5.686;2022-12-08T06:49:15;2.40;99.90
56512;DHT22;42408;53.238;5.686;2022-12-08T06:51:40;2.40;99.90
56512;DHT22;42408;53.238;5.686;2022-12-08T06:54:06;3.40;99.90
56512;DHT22;42408;53.238;5.686;2022-12-08T06:56:31;2.30;99.90
56512;DHT22;42408;53.238;5.686;2022-12-08T06:58:57;2.30;99.90
56512;DHT22;42408;53.238;5.686;2022-12-08T07:01:22;2.20;99.90
56512;DHT22;42408;53.238;5.686;2022-12-08T07:03:48;2.20;99.90
56512;DHT22;42408;53.238;5.686;2022-12-08T07:06:15;2.20;99.90
56512;DHT22;42408;53.238;5.686;2022-12-08T07:08:41;2.20;99.90
56512;DHT22;42408;53.238;5.686;2022-12-08T07:11:07;2.20;99.90
56512;DHT22;42408;53.238;5.686;2022-12-08T07:13:33;2.10;99.90
56512;DHT22;42408;53.238;5.686;2022-12-08T07:15:59;2.10;99.90
56512;DHT22;42408;53.238;5.686;2022-12-08T07:18:24;2.10;99.90
56512;DHT22;42408;53.238;5.686;2022-12-08T07:20:50;2.10;99.90
56512;DHT22;42408;53.238;5.686;2022-12-08T07:23:15;2.10;99.90
56512;DHT22;42408;53.238;5.686;2022-12-08T07:25:41;2.10;99.90
56512;DHT22;42408;53.238;5.686;2022-12-08T07:28:07;2.00;99.90
56512;DHT22;42408;53.238;5.686;2022-12-08T07:30:32;2.00;99.90
56512;DHT22;42408;53.238;5.686;2022-12-08T07:32:58;2.00;99.90
56512;DHT22;42408;53.238;5.686;2022-12-08T07:35:23;2.00;99.90
56512;DHT22;42408;53.238;5.686;2022-12-08T07:37:49;1.90;99.90
56512;DHT22;42408;53.238;5.686;2022-12-08T07:40:15;1.90;99.90
56512;DHT22;42408;53.238;5.686;2022-12-08T07:42:41;1.90;99.90
56512;DHT22;42408;53.238;5.686;2022-12-08T07:45:06;1.90;99.90
56512;DHT22;42408;53.238;5.686;2022-12-08T07:47:32;1.90;99.90
56512;DHT22;42408;53.238;5.686;2022-12-08T07:49:57;1.90;99.90
56512;DHT22;42408;53.238;5.686;2022-12-08T07:52:23;1.90;99.90
56512;DHT22;42408;53.238;5.686;2022-12-08T07:54:48;1.90;99.90
56512;DHT22;42408;53.238;5.686;2022-12-08T07:57:14;1.90;99.90
56512;DHT22;42408;53.238;5.686;2022-12-08T07:59:39;1.90;99.90
56512;DHT22;42408;53.238;5.686;2022-12-08T08:02:05;1.90;99.90
56512;DHT22;42408;53.238;5.686;2022-12-08T08:04:30;1.90;99.90
56512;DHT22;42408;53.238;5.686;2022-12-08T08:06:56;1.80;99.90
56512;DHT22;42408;53.238;5.686;2022-12-08T08:09:21;1.80;99.90
56512;DHT22;42408;53.238;5.686;2022-12-08T08:11:47;3.00;99.90
56512;DHT22;42408;53.238;5.686;2022-12-08T08:14:12;1.90;99.90
56512;DHT22;42408;53.238;5.686;2022-12-08T08:16:38;1.80;99.90
56512;DHT22;42408;53.238;5.686;2022-12-08T08:19:10;1.90;99.90
56512;DHT22;42408;53.238;5.686;2022-12-08T08:21:36;1.90;99.90
56512;DHT22;42408;53.238;5.686;2022-12-08T08:24:01;1.90;99.90
56512;DHT22;42408;53.238;5.686;2022-12-08T08:26:27;1.90;99.90
56512;DHT22;42408;53.238;5.686;2022-12-08T08:28:52;2.00;99.90
56512;DHT22;42408;53.238;5.686;2022-12-08T08:31:18;2.00;99.90
56512;DHT22;42408;53.238;5.686;2022-12-08T08:33:48;2.10;99.90
56512;DHT22;42408;53.238;5.686;2022-12-08T08:36:13;2.10;99.90
56512;DHT22;42408;53.238;5.686;2022-12-08T08:38:39;2.70;99.90
56512;DHT22;42408;53.238;5.686;2022-12-08T08:41:07;2.10;99.90
56512;DHT22;42408;53.238;5.686;2022-12-08T08:43:34;2.20;99.90
56512;DHT22;42408;53.238;5.686;2022-12-08T08:46:00;2.20;99.90
56512;DHT22;42408;53.238;5.686;2022-12-08T08:48:27;2.20;99.90
56512;DHT22;42408;53.238;5.686;2022-12-08T08:50:53;3.40;99.90
56512;DHT22;42408;53.238;5.686;2022-12-08T08:53:19;2.20;99.90
56512;DHT22;42408;53.238;5.686;2022-12-08T08:55:44;2.20;99.90
56512;DHT22;42408;53.238;5.686;2022-12-08T08:58:10;2.20;99.90
56512;DHT22;42408;53.238;5.686;2022-12-08T09:00:35;2.30;99.90
56512;DHT22;42408;53.238;5.686;2022-12-08T09:03:01;2.20;99.90
56512;DHT22;42408;53.238;5.686;2022-12-08T09:05:27;2.30;99.90
56512;DHT22;42408;53.238;5.686;2022-12-08T09:07:52;2.30;99.90
56512;DHT22;42408;53.238;5.686;2022-12-08T09:10:18;2.40;99.90
56512;DHT22;42408;53.238;5.686;2022-12-08T09:12:43;2.40;99.90
56512;DHT22;42408;53.238;5.686;2022-12-08T09:15:09;2.40;99.90
56512;DHT22;42408;53.238;5.686;2022-12-08T09:17:34;2.50;99.90
56512;DHT22;42408;53.238;5.686;2022-12-08T09:20:00;2.60;99.90
56512;DHT22;42408;53.238;5.686;2022-12-08T09:22:26;2.60;99.90
56512;DHT22;42408;53.238;5.686;2022-12-08T09:24:51;2.60;99.90
56512;DHT22;42408;53.238;5.686;2022-12-08T09:27:17;2.70;99.90
56512;DHT22;42408;53.238;5.686;2022-12-08T09:29:42;2.70;99.90
56512;DHT22;42408;53.238;5.686;2022-12-08T09:32:08;2.80;99.90
56512;DHT22;42408;53.238;5.686;2022-12-08T09:34:33;2.80;99.90
56512;DHT22;42408;53.238;5.686;2022-12-08T09:36:59;2.80;99.90
56512;DHT22;42408;53.238;5.686;2022-12-08T09:39:24;2.80;99.90
56512;DHT22;42408;53.238;5.686;2022-12-08T09:42:03;2.80;99.90
56512;DHT22;42408;53.238;5.686;2022-12-08T09:47:04;2.90;99.90
56512;DHT22;42408;53.238;5.686;2022-12-08T09:49:41;3.10;99.90
56512;DHT22;42408;53.238;5.686;2022-12-08T09:52:44;2.90;99.90
56512;DHT22;42408;53.238;5.686;2022-12-08T09:55:03;3.00;99.90
56512;DHT22;42408;53.238;5.686;2022-12-08T09:57:33;3.00;99.90
56512;DHT22;42408;53.238;5.686;2022-12-08T10:00:00;3.00;99.90
56512;DHT22;42408;53.238;5.686;2022-12-08T10:02:28;3.00;99.90
56512;DHT22;42408;53.238;5.686;2022-12-08T10:04:54;3.10;99.90
56512;DHT22;42408;53.238;5.686;2022-12-08T10:17:34;3.30;99.90
56512;DHT22;42408;53.238;5.686;2022-12-08T10:20:05;3.40;99.90
56512;DHT22;42408;53.238;5.686;2022-12-08T10:22:35;3.50;99.90
56512;DHT22;42408;53.238;5.686;2022-12-08T10:25:04;3.60;99.90
56512;DHT22;42408;53.238;5.686;2022-12-08T10:27:32;3.70;99.90
56512;DHT22;42408;53.238;5.686;2022-12-08T10:30:00;3.80;99.90
56512;DHT22;42408;53.238;5.686;2022-12-08T10:32:26;4.00;99.90
56512;DHT22;42408;53.238;5.686;2022-12-08T10:35:03;4.10;99.90
56512;DHT22;42408;53.238;5.686;2022-12-08T10:37:28;4.30;99.90
56512;DHT22;42408;53.238;5.686;2022-12-08T10:42:52;4.60;99.90
56512;DHT22;42408;53.238;5.686;2022-12-08T10:48:36;4.70;99.90
56512;DHT22;42408;53.238;5.686;2022-12-08T10:53:19;4.70;99.90
56512;DHT22;42408;53.238;5.686;2022-12-08T10:55:46;5.60;99.90
56512;DHT22;42408;53.238;5.686;2022-12-08T11:01:05;4.70;99.90
56512;DHT22;42408;53.238;5.686;2022-12-08T11:06:20;4.70;99.90
56512;DHT22;42408;53.238;5.686;2022-12-08T11:08:57;4.70;99.90
56512;DHT22;42408;53.238;5.686;2022-12-08T11:11:37;4.70;99.90
56512;DHT22;42408;53.238;5.686;2022-12-08T11:14:06;4.60;99.90
56512;DHT22;42408;53.238;5.686;2022-12-08T11:16:32;4.60;99.90
56512;DHT22;42408;53.238;5.686;2022-12-08T11:18:59;4.60;99.90
56512;DHT22;42408;53.238;5.686;2022-12-08T11:21:33;4.50;99.90
56512;DHT22;42408;53.238;5.686;2022-12-08T11:24:03;4.50;99.90
56512;DHT22;42408;53.238;5.686;2022-12-08T11:26:34;4.50;99.90
56512;DHT22;42408;53.238;5.686;2022-12-08T11:29:01;4.40;99.90
56512;DHT22;42408;53.238;5.686;2022-12-08T11:31:31;4.40;99.90
56512;DHT22;42408;53.238;5.686;2022-12-08T11:33:58;4.30;99.90
56512;DHT22;42408;53.238;5.686;2022-12-08T11:36:24;4.30;99.90
56512;DHT22;42408;53.238;5.686;2022-12-08T11:38:58;4.30;99.90
56512;DHT22;42408;53.238;5.686;2022-12-08T11:41:26;4.30;99.90
56512;DHT22;42408;53.238;5.686;2022-12-08T11:43:54;4.30;99.90
56512;DHT22;42408;53.238;5.686;2022-12-08T11:46:24;4.20;99.90
56512;DHT22;42408;53.238;5.686;2022-12-08T11:48:51;4.20;99.90
56512;DHT22;42408;53.238;5.686;2022-12-08T11:53:52;5.30;99.90
56512;DHT22;42408;53.238;5.686;2022-12-08T11:56:26;4.20;99.90
56512;DHT22;42408;53.238;5.686;2022-12-08T11:58:58;5.10;99.90
56512;DHT22;42408;53.238;5.686;2022-12-08T12:01:25;4.20;99.90
56512;DHT22;42408;53.238;5.686;2022-12-08T12:03:53;4.20;99.90
56512;DHT22;42408;53.238;5.686;2022-12-08T12:11:40;4.20;99.90
56512;DHT22;42408;53.238;5.686;2022-12-08T12:19:52;4.20;99.90
56512;DHT22;42408;53.238;5.686;2022-12-08T12:22:19;4.20;99.90
56512;DHT22;42408;53.238;5.686;2022-12-08T12:24:46;4.30;99.90
56512;DHT22;42408;53.238;5.686;2022-12-08T12:29:43;4.30;99.90
56512;DHT22;42408;53.238;5.686;2022-12-08T12:32:10;4.30;99.90
56512;DHT22;42408;53.238;5.686;2022-12-08T12:39:52;4.30;99.90
56512;DHT22;42408;53.238;5.686;2022-12-08T12:42:42;4.40;99.90
56512;DHT22;42408;53.238;5.686;2022-12-08T12:45:22;4.50;99.90
56512;DHT22;42408;53.238;5.686;2022-12-08T12:47:52;4.50;99.90
56512;DHT22;42408;53.238;5.686;2022-12-08T12:53:05;4.70;99.90
56512;DHT22;42408;53.238;5.686;2022-12-08T12:58:22;4.90;99.90
56512;DHT22;42408;53.238;5.686;2022-12-08T13:03:36;5.00;99.90
56512;DHT22;42408;53.238;5.686;2022-12-08T13:06:02;5.00;99.90
56512;DHT22;42408;53.238;5.686;2022-12-08T13:08:28;5.10;99.90
56512;DHT22;42408;53.238;5.686;2022-12-08T13:11:01;5.10;99.90
56512;DHT22;42408;53.238;5.686;2022-12-08T13:13:27;5.10;99.90
56512;DHT22;42408;53.238;5.686;2022-12-08T13:18:34;5.20;99.90
56512;DHT22;42408;53.238;5.686;2022-12-08T13:34:00;5.20;99.90
56512;DHT22;42408;53.238;5.686;2022-12-08T13:36:32;5.80;99.90
56512;DHT22;42408;53.238;5.686;2022-12-08T13:38:59;5.10;99.90
56512;DHT22;42408;53.238;5.686;2022-12-08T13:41:33;5.90;99.90
56512;DHT22;42408;53.238;5.686;2022-12-08T13:44:20;5.00;99.90
56512;DHT22;42408;53.238;5.686;2022-12-08T13:46:48;4.90;99.90
56512;DHT22;42408;53.238;5.686;2022-12-08T13:49:16;4.70;99.90
56512;DHT22;42408;53.238;5.686;2022-12-08T13:51:43;4.70;99.90
56512;DHT22;42408;53.238;5.686;2022-12-08T13:56:39;4.50;99.90
56512;DHT22;42408;53.238;5.686;2022-12-08T13:59:22;4.80;99.90
56512;DHT22;42408;53.238;5.686;2022-12-08T14:01:49;4.50;99.90
56512;DHT22;42408;53.238;5.686;2022-12-08T14:04:16;4.40;99.90
56512;DHT22;42408;53.238;5.686;2022-12-08T14:06:43;4.30;99.90
56512;DHT22;42408;53.238;5.686;2022-12-08T14:09:10;5.10;99.90
56512;DHT22;42408;53.238;5.686;2022-12-08T14:11:38;4.20;99.90
56512;DHT22;42408;53.238;5.686;2022-12-08T14:14:08;4.20;99.90
56512;DHT22;42408;53.238;5.686;2022-12-08T14:16:38;4.10;99.90
56512;DHT22;42408;53.238;5.686;2022-12-08T14:19:15;4.10;99.90
56512;DHT22;42408;53.238;5.686;2022-12-08T14:21:40;4.00;99.90
56512;DHT22;42408;53.238;5.686;2022-12-08T14:24:07;4.00;99.90
56512;DHT22;42408;53.238;5.686;2022-12-08T14:26:32;3.90;99.90
56512;DHT22;42408;53.238;5.686;2022-12-08T14:28:59;3.80;99.90
56512;DHT22;42408;53.238;5.686;2022-12-08T14:31:26;3.80;99.90
56512;DHT22;42408;53.238;5.686;2022-12-08T14:33:52;4.60;99.90
56512;DHT22;42408;53.238;5.686;2022-12-08T14:36:17;4.50;99.90
56512;DHT22;42408;53.238;5.686;2022-12-08T14:38:45;3.60;99.90
56512;DHT22;42408;53.238;5.686;2022-12-08T14:41:11;3.50;99.90
56512;DHT22;42408;53.238;5.686;2022-12-08T14:43:37;3.50;99.90
56512;DHT22;42408;53.238;5.686;2022-12-08T14:46:18;3.50;99.90
56512;DHT22;42408;53.238;5.686;2022-12-08T14:48:44;3.40;99.90
56512;DHT22;42408;53.238;5.686;2022-12-08T14:53:36;3.30;99.90
56512;DHT22;42408;53.238;5.686;2022-12-08T14:56:07;3.30;99.90
56512;DHT22;42408;53.238;5.686;2022-12-08T14:58:33;3.20;99.90
56512;DHT22;42408;53.238;5.686;2022-12-08T15:00:59;3.20;99.90
56512;DHT22;42408;53.238;5.686;2022-12-08T15:03:26;3.10;99.90
56512;DHT22;42408;53.238;5.686;2022-12-08T15:05:53;3.10;99.90
56512;DHT22;42408;53.238;5.686;2022-12-08T15:08:19;3.00;99.90
56512;DHT22;42408;53.238;5.686;2022-12-08T15:10:45;3.00;99.90
56512;DHT22;42408;53.238;5.686;2022-12-08T15:20:40;2.80;99.90
56512;DHT22;42408;53.238;5.686;2022-12-08T15:23:25;2.80;99.90
56512;DHT22;42408;53.238;5.686;2022-12-08T15:25:52;2.70;99.90
56512;DHT22;42408;53.238;5.686;2022-12-08T15:28:18;3.70;99.90
56512;DHT22;42408;53.238;5.686;2022-12-08T15:30:44;2.60;99.90
56512;DHT22;42408;53.238;5.686;2022-12-08T15:33:10;2.60;99.90
56512;DHT22;42408;53.238;5.686;2022-12-08T15:35:35;2.60;99.90
56512;DHT22;42408;53.238;5.686;2022-12-08T15:38:01;2.50;99.90
56512;DHT22;42408;53.238;5.686;2022-12-08T15:40:26;2.50;99.90
56512;DHT22;42408;53.238;5.686;2022-12-08T15:42:52;2.40;99.90
56512;DHT22;42408;53.238;5.686;2022-12-08T15:45:17;3.40;99.90
56512;DHT22;42408;53.238;5.686;2022-12-08T15:47:43;2.40;99.90
56512;DHT22;42408;53.238;5.686;2022-12-08T15:50:13;3.20;99.90
56512;DHT22;42408;53.238;5.686;2022-12-08T15:52:39;2.40;99.90
56512;DHT22;42408;53.238;5.686;2022-12-08T15:55:05;2.30;99.90
56512;DHT22;42408;53.238;5.686;2022-12-08T15:57:31;2.30;99.90
56512;DHT22;42408;53.238;5.686;2022-12-08T15:59:56;2.30;99.90
56512;DHT22;42408;53.238;5.686;2022-12-08T16:02:22;2.30;99.90
56512;DHT22;42408;53.238;5.686;2022-12-08T16:04:48;3.10;99.90
56512;DHT22;42408;53.238;5.686;2022-12-08T16:07:47;2.20;99.90
56512;DHT22;42408;53.238;5.686;2022-12-08T16:10:06;2.20;99.90
56512;DHT22;42408;53.238;5.686;2022-12-08T16:12:32;2.20;99.90
56512;DHT22;42408;53.238;5.686;2022-12-08T16:15:16;2.20;99.90
56512;DHT22;42408;53.238;5.686;2022-12-08T16:17:41;2.10;99.90
56512;DHT22;42408;53.238;5.686;2022-12-08T16:20:10;2.10;99.90
56512;DHT22;42408;53.238;5.686;2022-12-08T16:22:36;2.10;99.90
56512;DHT22;42408;53.238;5.686;2022-12-08T16:25:02;2.10;99.90
56512;DHT22;42408;53.238;5.686;2022-12-08T16:27:29;2.10;99.90
56512;DHT22;42408;53.238;5.686;2022-12-08T16:29:56;2.00;99.90
56512;DHT22;42408;53.238;5.686;2022-12-08T16:32:22;2.00;99.90
56512;DHT22;42408;53.238;5.686;2022-12-08T16:34:48;2.00;99.90
56512;DHT22;42408;53.238;5.686;2022-12-08T16:37:15;2.00;99.90
56512;DHT22;42408;53.238;5.686;2022-12-08T16:39:41;2.00;99.90
56512;DHT22;42408;53.238;5.686;2022-12-08T16:42:11;2.00;99.90
56512;DHT22;42408;53.238;5.686;2022-12-08T16:44:55;1.90;99.90
56512;DHT22;42408;53.238;5.686;2022-12-08T16:47:20;1.90;99.90
56512;DHT22;42408;53.238;5.686;2022-12-08T16:49:46;1.90;99.90
56512;DHT22;42408;53.238;5.686;2022-12-08T16:52:11;1.90;99.90
56512;DHT22;42408;53.238;5.686;2022-12-08T16:54:37;3.00;99.90
56512;DHT22;42408;53.238;5.686;2022-12-08T16:57:02;1.90;99.90
56512;DHT22;42408;53.238;5.686;2022-12-08T16:59:28;1.80;99.90
56512;DHT22;42408;53.238;5.686;2022-12-08T17:01:55;1.80;99.90
56512;DHT22;42408;53.238;5.686;2022-12-08T17:04:20;1.80;99.90
56512;DHT22;42408;53.238;5.686;2022-12-08T17:06:46;1.80;99.90
56512;DHT22;42408;53.238;5.686;2022-12-08T17:09:11;1.80;99.90
56512;DHT22;42408;53.238;5.686;2022-12-08T17:11:37;1.80;99.90
56512;DHT22;42408;53.238;5.686;2022-12-08T17:14:03;1.80;99.90
56512;DHT22;42408;53.238;5.686;2022-12-08T17:16:28;1.80;99.90
56512;DHT22;42408;53.238;5.686;2022-12-08T17:18:54;1.80;99.90
56512;DHT22;42408;53.238;5.686;2022-12-08T17:21:19;1.80;99.90
56512;DHT22;42408;53.238;5.686;2022-12-08T17:23:45;1.80;99.90
56512;DHT22;42408;53.238;5.686;2022-12-08T17:26:11;1.80;99.90
56512;DHT22;42408;53.238;5.686;2022-12-08T17:28:36;3.10;99.90
56512;DHT22;42408;53.238;5.686;2022-12-08T17:31:06;1.70;99.90
56512;DHT22;42408;53.238;5.686;2022-12-08T17:33:32;1.70;99.90
56512;DHT22;42408;53.238;5.686;2022-12-08T17:35:58;1.70;99.90
56512;DHT22;42408;53.238;5.686;2022-12-08T17:38:23;1.70;99.90
56512;DHT22;42408;53.238;5.686;2022-12-08T17:40:49;1.70;99.90
56512;DHT22;42408;53.238;5.686;2022-12-08T17:43:14;1.70;99.90
56512;DHT22;42408;53.238;5.686;2022-12-08T17:45:41;1.70;99.90
56512;DHT22;42408;53.238;5.686;2022-12-08T17:48:06;1.70;99.90
56512;DHT22;42408;53.238;5.686;2022-12-08T17:50:32;1.70;99.90
56512;DHT22;42408;53.238;5.686;2022-12-08T17:53:01;1.70;99.90